Time;durP1;ratioP1;P1;durP2;ratioP2;P2;SDS_P1;SDS_P2;PMS_P1;PMS_P2;Temp;Humidity;BMP_temperature;BMP_pressure;BME280_temperature;BME280_humidity;BME280_pressure;Samples;Min_cycle;Max_cycle;Signal;HPM_P1;HPM_P2
2024/03/21 00:01:19;;;;;;;12.17;11.20;;;8.90;99.90;;;;;;5004416;28;20233;-78
2024/03/21 00:03:47;;;;;;;12.43;11.47;;;8.90;99.90;;;;;;4999808;28;20680;-78
2024/03/21 00:06:14;;;;;;;12.10;11.00;;;8.80;99.90;;;;;;5003744;28;20190;-79
2024/03/21 00:08:41;;;;;;;12.97;11.70;;;8.80;99.90;;;;;;4999778;28;20200;-78
2024/03/21 00:11:07;;;;;;;13.07;12.03;;;8.70;99.90;;;;;;5003222;28;20232;-78
2024/03/21 00:13:34;;;;;;;12.17;11.27;;;8.70;99.90;;;;;;5004658;28;20216;-77
2024/03/21 00:16:01;;;;;;;12.67;11.67;;;8.60;99.90;;;;;;5005622;28;20228;-78
2024/03/21 00:18:27;;;;;;;12.23;11.33;;;8.70;99.90;;;;;;5009768;28;20569;-78
2024/03/21 00:20:55;;;;;;;12.73;11.63;;;8.60;99.90;;;;;;5001116;28;20197;-77
2024/03/21 00:23:21;;;;;;;12.20;11.30;;;8.60;99.90;;;;;;5003304;28;20221;-78
2024/03/21 00:25:47;;;;;;;13.30;12.10;;;8.60;99.90;;;;;;4998811;28;20260;-78
2024/03/21 00:28:16;;;;;;;12.97;11.97;;;8.60;99.90;;;;;;5003399;28;20197;-77
2024/03/21 00:30:43;;;;;;;13.30;12.27;;;8.60;99.90;;;;;;5006646;28;20663;-77
2024/03/21 00:33:10;;;;;;;13.10;12.10;;;8.50;99.90;;;;;;4999990;28;20312;-78
2024/03/21 00:35:36;;;;;;;14.13;12.93;;;8.50;99.90;;;;;;5004644;28;20220;-78
2024/03/21 00:38:04;;;;;;;13.00;12.10;;;8.50;99.90;;;;;;5000508;28;20231;-78
2024/03/21 00:40:30;;;;;;;13.67;12.47;;;8.50;99.90;;;;;;5002835;28;20212;-77
2024/03/21 00:42:57;;;;;;;13.73;12.53;;;8.50;99.90;;;;;;4997989;28;20584;-78
2024/03/21 00:45:23;;;;;;;12.57;11.67;;;8.50;99.90;;;;;;5000965;28;20197;-78
2024/03/21 00:47:49;;;;;;;13.33;12.37;;;8.40;99.90;;;;;;5002224;28;20236;-78
2024/03/21 00:50:15;;;;;;;13.50;12.40;;;8.30;99.90;;;;;;5002451;28;20194;-78
2024/03/21 00:52:42;;;;;;;13.03;12.07;;;8.30;99.90;;;;;;4999168;28;20266;-78
2024/03/21 00:55:09;;;;;;;13.47;12.43;;;8.30;99.90;;;;;;5000738;28;20657;-78
2024/03/21 00:57:36;;;;;;;13.30;12.37;;;8.20;99.90;;;;;;4997639;28;20204;-78
2024/03/21 01:00:03;;;;;;;13.80;12.80;;;8.30;99.90;;;;;;5005518;28;20259;-78
2024/03/21 01:02:30;;;;;;;13.50;12.50;;;8.30;99.90;;;;;;5001019;28;20217;-78
2024/03/21 01:04:56;;;;;;;13.40;12.30;;;8.30;99.90;;;;;;5005507;28;20208;-77
2024/03/21 01:07:22;;;;;;;13.17;12.03;;;8.40;99.90;;;;;;5001226;28;20196;-77
2024/03/21 01:09:48;;;;;;;13.10;12.10;;;8.40;99.90;;;;;;5000045;28;20232;-78
2024/03/21 01:12:16;;;;;;;13.67;12.67;;;8.50;99.90;;;;;;5000849;28;20221;-78
2024/03/21 01:14:42;;;;;;;13.07;12.17;;;8.40;99.90;;;;;;4997127;28;20236;-77
2024/03/21 01:17:09;;;;;;;13.10;12.20;;;8.40;99.90;;;;;;5006249;28;20236;-78
2024/03/21 01:19:36;;;;;;;13.03;12.03;;;8.50;99.90;;;;;;4998699;28;20632;-77
2024/03/21 01:22:03;;;;;;;13.30;12.23;;;8.50;99.90;;;;;;4993151;28;20256;-78
2024/03/21 01:24:29;;;;;;;13.53;12.43;;;8.50;99.90;;;;;;5010205;28;20208;-78
2024/03/21 01:26:56;;;;;;;12.90;11.90;;;8.50;99.90;;;;;;5003580;28;20578;-77
2024/03/21 01:29:23;;;;;;;13.43;12.43;;;8.50;99.90;;;;;;5000445;28;20198;-77
2024/03/21 01:31:50;;;;;;;13.10;12.20;;;8.40;99.90;;;;;;4996715;28;20735;-78
2024/03/21 01:34:16;;;;;;;12.77;11.87;;;8.40;99.90;;;;;;5005177;28;20239;-78
2024/03/21 01:36:47;;;;;;;13.20;12.27;;;8.30;99.90;;;;;;4998297;28;20241;-77
2024/03/21 01:39:14;;;;;;;13.67;12.70;;;8.30;99.90;;;;;;5013213;28;20439;-78
2024/03/21 01:41:41;;;;;;;12.80;11.90;;;8.20;99.90;;;;;;4998571;28;20320;-77
2024/03/21 01:44:14;;;;;;;12.93;11.93;;;8.20;99.90;;;;;;5002010;28;20280;-77
2024/03/21 01:46:42;;;;;;;13.83;12.73;;;8.20;99.90;;;;;;5006978;28;20587;-77
2024/03/21 01:49:09;;;;;;;13.33;12.40;;;8.20;99.90;;;;;;5002306;28;20193;-78
2024/03/21 01:51:37;;;;;;;13.27;12.37;;;8.20;99.90;;;;;;4998839;28;20303;-78
2024/03/21 01:54:04;;;;;;;13.03;12.03;;;8.20;99.90;;;;;;5001745;28;20201;-78
2024/03/21 01:56:32;;;;;;;13.27;12.37;;;8.20;99.90;;;;;;4997286;28;20208;-78
2024/03/21 01:58:57;;;;;;;14.00;12.80;;;8.20;99.90;;;;;;5008815;28;20205;-78
2024/03/21 02:01:26;;;;;;;13.60;12.60;;;8.30;99.90;;;;;;5008382;28;20637;-78
2024/03/21 02:03:55;;;;;;;13.90;12.83;;;8.30;99.90;;;;;;4998603;28;20566;-78
2024/03/21 02:06:23;;;;;;;12.80;11.87;;;8.40;99.90;;;;;;5000633;28;20759;-77
2024/03/21 02:08:51;;;;;;;13.30;12.20;;;8.50;99.90;;;;;;4999730;28;20220;-78
2024/03/21 02:11:18;;;;;;;12.90;11.90;;;8.50;99.90;;;;;;5000737;28;20201;-78
2024/03/21 02:13:44;;;;;;;13.20;12.20;;;8.50;99.90;;;;;;5011482;28;20227;-78
2024/03/21 02:16:12;;;;;;;13.07;12.17;;;8.50;99.90;;;;;;4999850;28;20636;-77
2024/03/21 02:18:38;;;;;;;12.40;11.57;;;8.50;99.90;;;;;;4997061;28;20231;-78
2024/03/21 02:22:35;;;;;;;12.60;11.70;;;8.50;99.90;;;;;;4999737;28;20213;-77
2024/03/21 02:23:54;;;;;;;13.07;12.07;;;8.60;99.90;;;;;;5009048;28;20196;-78
2024/03/21 02:26:21;;;;;;;12.97;11.97;;;8.60;99.90;;;;;;4999431;28;20205;-78
2024/03/21 02:28:50;;;;;;;12.83;11.93;;;8.60;99.90;;;;;;5001351;28;20212;-77
2024/03/21 02:31:19;;;;;;;12.50;11.70;;;8.70;99.90;;;;;;4998469;28;20197;-79
2024/03/21 02:33:44;;;;;;;13.80;12.50;;;8.70;99.90;;;;;;4999927;28;20208;-78
2024/03/21 02:36:11;;;;;;;13.10;12.00;;;8.80;99.90;;;;;;5000157;28;20209;-78
2024/03/21 02:38:37;;;;;;;13.50;12.50;;;8.80;99.90;;;;;;4999771;28;20624;-78
2024/03/21 02:41:06;;;;;;;12.60;11.70;;;8.80;99.90;;;;;;5000205;28;20244;-77
2024/03/21 02:43:32;;;;;;;12.80;11.90;;;8.80;99.90;;;;;;4998863;28;20193;-78
2024/03/21 02:45:58;;;;;;;12.60;11.70;;;8.90;99.90;;;;;;4997669;28;20359;-78
2024/03/21 02:48:24;;;;;;;12.97;12.03;;;8.90;99.90;;;;;;4997175;28;20245;-78
2024/03/21 02:50:51;;;;;;;12.93;12.03;;;9.00;99.90;;;;;;4996050;28;20672;-78
2024/03/21 02:53:17;;;;;;;12.77;11.97;;;9.10;99.90;;;;;;5002538;28;20230;-78
2024/03/21 02:55:44;;;;;;;13.00;12.10;;;9.10;99.90;;;;;;5006218;28;20212;-78
2024/03/21 02:58:11;;;;;;;12.77;11.90;;;9.20;99.90;;;;;;5011712;28;20228;-78
2024/03/21 03:00:38;;;;;;;13.40;12.50;;;9.30;99.90;;;;;;4998732;28;20291;-78
2024/03/21 03:03:04;;;;;;;13.53;12.63;;;9.30;99.90;;;;;;4997885;28;20232;-78
2024/03/21 03:05:31;;;;;;;13.03;12.20;;;9.30;99.90;;;;;;4996422;28;20204;-78
2024/03/21 03:07:57;;;;;;;13.47;12.57;;;9.30;99.90;;;;;;4994923;28;20220;-78
2024/03/21 03:10:24;;;;;;;13.30;12.30;;;9.30;99.90;;;;;;5004467;28;20231;-78
2024/03/21 03:12:51;;;;;;;13.00;12.20;;;9.40;99.90;;;;;;4996689;28;20252;-77
2024/03/21 03:15:19;;;;;;;12.50;11.70;;;9.40;99.90;;;;;;4992164;28;20396;-78
2024/03/21 03:17:45;;;;;;;12.50;11.70;;;9.40;99.90;;;;;;5016290;28;20228;-78
2024/03/21 03:20:12;;;;;;;13.07;12.17;;;9.50;99.90;;;;;;4993773;28;20197;-78
2024/03/21 03:22:38;;;;;;;12.40;11.60;;;9.50;99.90;;;;;;4996351;28;20245;-78
2024/03/21 03:25:06;;;;;;;13.17;12.17;;;9.50;99.90;;;;;;4995608;28;20229;-78
2024/03/21 03:27:31;;;;;;;12.20;11.40;;;9.60;99.90;;;;;;5003026;28;20605;-78
2024/03/21 03:29:58;;;;;;;12.63;11.77;;;9.60;99.90;;;;;;4996367;28;20232;-78
2024/03/21 03:32:26;;;;;;;12.30;11.50;;;9.60;99.90;;;;;;5002350;28;20335;-78
2024/03/21 03:37:35;;;;;;;12.53;11.63;;;9.60;99.90;;;;;;4993103;28;20236;-78
2024/03/21 03:40:03;;;;;;;12.10;11.30;;;9.60;99.90;;;;;;4994204;28;20681;-78
2024/03/21 03:42:30;;;;;;;12.53;11.63;;;9.60;99.90;;;;;;5011172;28;20212;-77
2024/03/21 03:44:57;;;;;;;12.97;12.07;;;9.60;99.90;;;;;;5000849;28;20221;-77
2024/03/21 03:47:24;;;;;;;12.60;11.50;;;9.60;99.90;;;;;;5000096;28;20202;-78
2024/03/21 03:49:52;;;;;;;12.20;11.30;;;9.70;99.90;;;;;;5000452;28;20576;-87
2024/03/21 03:52:19;;;;;;;12.50;11.70;;;9.70;99.90;;;;;;5008587;28;20222;-80
2024/03/21 03:54:45;;;;;;;12.10;11.30;;;9.70;99.90;;;;;;5014134;28;20195;-80
2024/03/21 03:57:12;;;;;;;12.10;11.30;;;9.70;99.90;;;;;;5003523;28;20268;-81
2024/03/21 03:59:42;;;;;;;11.90;11.20;;;9.70;99.90;;;;;;5004557;28;20252;-80
2024/03/21 04:02:08;;;;;;;12.57;11.73;;;9.70;99.90;;;;;;5005275;28;20263;-81
2024/03/21 04:04:34;;;;;;;12.17;11.27;;;9.70;99.90;;;;;;5011683;28;20199;-82
2024/03/21 04:07:02;;;;;;;12.50;11.60;;;9.70;99.90;;;;;;5003311;28;20272;-81
2024/03/21 04:09:30;;;;;;;12.10;11.30;;;9.70;99.90;;;;;;5008675;28;21896;-81
2024/03/21 04:11:56;;;;;;;12.27;11.33;;;9.70;99.90;;;;;;5005647;28;20236;-81
2024/03/21 04:14:28;;;;;;;11.90;11.10;;;9.70;99.90;;;;;;5010712;28;20201;-81
2024/03/21 04:16:54;;;;;;;13.20;12.30;;;9.70;99.90;;;;;;5016126;28;20208;-81
2024/03/21 04:19:21;;;;;;;11.73;11.03;;;9.70;99.90;;;;;;5001320;28;20196;-81
2024/03/21 04:21:46;;;;;;;12.10;11.20;;;9.80;99.90;;;;;;5006906;28;20221;-83
2024/03/21 04:24:16;;;;;;;12.30;11.30;;;9.80;99.90;;;;;;5008984;28;20201;-80
2024/03/21 04:26:42;;;;;;;12.03;11.30;;;9.80;99.90;;;;;;5005089;28;20224;-80
2024/03/21 04:29:09;;;;;;;12.53;11.60;;;9.80;99.90;;;;;;5008371;28;20684;-81
2024/03/21 04:31:35;;;;;;;11.77;10.97;;;9.80;99.90;;;;;;5004956;28;20261;-81
2024/03/21 04:34:02;;;;;;;11.90;11.10;;;9.80;99.90;;;;;;4995666;28;20327;-79
2024/03/21 04:36:28;;;;;;;11.87;11.00;;;9.80;99.90;;;;;;4998371;28;20266;-78
2024/03/21 04:38:55;;;;;;;12.70;11.80;;;9.80;99.90;;;;;;5005561;28;20617;-78
2024/03/21 04:41:23;;;;;;;11.70;10.90;;;9.80;99.90;;;;;;5003538;28;20229;-77
2024/03/21 04:43:49;;;;;;;12.23;11.43;;;9.70;99.90;;;;;;5003790;28;20197;-77
2024/03/21 04:46:16;;;;;;;13.13;12.33;;;9.80;99.90;;;;;;5001019;28;20584;-77
2024/03/21 04:48:43;;;;;;;13.40;12.50;;;9.80;99.90;;;;;;5006313;28;20658;-77
2024/03/21 04:51:10;;;;;;;12.60;11.90;;;9.80;99.90;;;;;;5001434;28;20760;-77
2024/03/21 04:53:36;;;;;;;12.60;11.80;;;9.80;99.90;;;;;;5005438;28;20229;-78
2024/03/21 04:56:04;;;;;;;13.03;12.07;;;9.80;99.90;;;;;;5001177;28;20632;-77
2024/03/21 04:58:32;;;;;;;12.63;11.73;;;9.80;99.90;;;;;;5003026;28;20682;-78
2024/03/21 05:00:58;;;;;;;12.87;12.07;;;9.80;99.90;;;;;;5005153;28;20208;-77
2024/03/21 05:03:24;;;;;;;12.67;11.87;;;9.80;99.90;;;;;;5000550;28;20226;-78
2024/03/21 05:05:51;;;;;;;12.77;11.87;;;9.80;99.90;;;;;;5004438;28;20198;-77
2024/03/21 05:08:17;;;;;;;12.70;11.80;;;9.80;99.90;;;;;;5000828;28;20200;-78
2024/03/21 05:10:43;;;;;;;12.13;11.43;;;9.80;99.90;;;;;;5005797;28;20200;-78
2024/03/21 05:13:09;;;;;;;12.97;12.07;;;9.80;99.90;;;;;;4998844;28;20255;-78
2024/03/21 05:15:37;;;;;;;12.83;12.03;;;9.80;99.90;;;;;;5007874;28;20191;-77
2024/03/21 05:18:03;;;;;;;13.27;12.47;;;9.80;99.90;;;;;;5015679;28;20241;-78
2024/03/21 05:20:32;;;;;;;13.93;13.03;;;9.80;99.90;;;;;;5008167;28;20206;-78
2024/03/21 05:22:57;;;;;;;13.03;12.13;;;9.80;99.90;;;;;;5005530;28;20317;-79
2024/03/21 05:25:24;;;;;;;12.13;11.43;;;9.80;99.90;;;;;;4997533;28;20295;-77
2024/03/21 05:27:50;;;;;;;13.20;12.40;;;9.80;99.90;;;;;;5001852;28;20264;-78
2024/03/21 05:30:17;;;;;;;12.60;11.70;;;9.80;99.90;;;;;;4998255;28;20655;-78
2024/03/21 05:32:44;;;;;;;13.40;12.40;;;9.80;99.90;;;;;;5002248;28;20246;-78
2024/03/21 05:35:11;;;;;;;12.80;11.80;;;9.80;99.90;;;;;;5006035;28;20201;-77
2024/03/21 05:37:37;;;;;;;12.67;11.87;;;9.90;99.90;;;;;;4999328;28;20214;-77
2024/03/21 05:40:04;;;;;;;12.60;11.80;;;9.90;99.90;;;;;;5010923;28;20244;-78
2024/03/21 05:42:30;;;;;;;12.03;11.23;;;9.90;99.90;;;;;;5000628;28;20237;-78
2024/03/21 05:44:57;;;;;;;12.20;11.40;;;9.90;99.90;;;;;;5002371;28;20198;-78
2024/03/21 05:47:24;;;;;;;13.30;12.47;;;10.00;99.90;;;;;;5006120;28;20218;-77
2024/03/21 05:49:52;;;;;;;12.47;11.67;;;10.00;99.90;;;;;;5002571;28;20203;-77
2024/03/21 05:52:18;;;;;;;13.00;12.20;;;10.10;99.90;;;;;;5004935;28;20210;-77
2024/03/21 05:54:49;;;;;;;12.87;12.00;;;10.10;99.90;;;;;;5000760;28;20194;-77
2024/03/21 05:57:15;;;;;;;13.30;12.40;;;10.20;99.90;;;;;;5009716;28;20227;-77
2024/03/21 05:59:42;;;;;;;12.67;11.87;;;10.20;99.90;;;;;;4998953;28;20206;-77
2024/03/21 06:02:08;;;;;;;12.70;11.90;;;10.30;99.90;;;;;;5002083;28;20231;-77
2024/03/21 06:04:35;;;;;;;12.40;11.60;;;10.30;99.90;;;;;;5004923;28;20199;-77
2024/03/21 06:07:02;;;;;;;12.67;11.83;;;10.30;99.90;;;;;;5001266;28;20229;-77
2024/03/21 06:09:31;;;;;;;13.23;12.43;;;10.30;99.90;;;;;;5008023;28;20210;-77
2024/03/21 06:11:57;;;;;;;14.17;13.33;;;10.40;99.90;;;;;;5005504;28;20250;-77
2024/03/21 06:14:24;;;;;;;13.87;12.97;;;10.40;99.90;;;;;;4995417;28;20246;-77
2024/03/21 06:16:50;;;;;;;13.33;12.43;;;10.30;99.90;;;;;;5000271;28;20211;-78
2024/03/21 06:19:17;;;;;;;12.87;11.97;;;10.40;99.90;;;;;;5005115;28;20256;-77
2024/03/21 06:21:43;;;;;;;12.90;12.00;;;10.30;99.90;;;;;;5002288;28;20953;-78
2024/03/21 06:24:11;;;;;;;13.97;12.87;;;10.30;99.90;;;;;;5000707;28;20214;-77
2024/03/21 06:26:37;;;;;;;12.77;11.93;;;10.30;99.90;;;;;;5016987;28;20197;-77
2024/03/21 06:29:03;;;;;;;12.43;11.60;;;10.30;99.90;;;;;;5008780;28;20261;-77
2024/03/21 06:31:30;;;;;;;13.40;12.43;;;10.30;99.90;;;;;;4997044;28;20227;-79
2024/03/21 06:33:56;;;;;;;11.67;10.97;;;10.30;99.90;;;;;;5006763;28;20199;-78
2024/03/21 06:36:22;;;;;;;12.93;11.93;;;10.40;99.90;;;;;;5003247;28;20215;-78
2024/03/21 06:38:51;;;;;;;13.80;12.80;;;10.40;99.90;;;;;;5000002;28;20208;-78
2024/03/21 06:41:18;;;;;;;12.27;11.47;;;10.40;99.90;;;;;;4998806;28;20834;-78
2024/03/21 06:43:45;;;;;;;12.13;11.23;;;10.50;99.90;;;;;;5012415;28;20194;-77
2024/03/21 06:46:11;;;;;;;12.63;11.73;;;10.50;99.90;;;;;;4996662;28;20211;-77
2024/03/21 06:48:38;;;;;;;13.57;12.53;;;10.50;99.90;;;;;;5000923;28;20268;-78
2024/03/21 06:51:07;;;;;;;11.20;10.40;;;10.50;99.90;;;;;;5012179;28;20258;-77
2024/03/21 06:53:34;;;;;;;5.50;4.63;;;10.60;99.90;;;;;;4998492;28;20195;-78
2024/03/21 06:56:00;;;;;;;4.57;4.17;;;10.60;99.90;;;;;;5004932;28;20269;-77
2024/03/21 06:58:28;;;;;;;12.30;11.30;;;10.60;99.90;;;;;;5010964;28;20632;-78
2024/03/21 07:00:54;;;;;;;8.97;8.27;;;10.70;99.90;;;;;;5010112;28;20281;-77
2024/03/21 07:03:21;;;;;;;11.50;10.77;;;10.70;99.90;;;;;;5002127;28;20668;-79
2024/03/21 07:05:48;;;;;;;10.73;10.03;;;10.70;99.90;;;;;;5005399;28;20206;-78
2024/03/21 07:08:15;;;;;;;9.37;8.77;;;10.80;99.90;;;;;;5001202;28;20200;-79
2024/03/21 07:10:41;;;;;;;9.03;8.43;;;10.90;99.90;;;;;;5002970;28;20200;-78
2024/03/21 07:13:07;;;;;;;7.40;6.80;;;10.90;99.90;;;;;;5002950;28;20220;-78
2024/03/21 07:15:40;;;;;;;9.10;8.50;;;11.00;99.90;;;;;;5000212;28;20267;-77
2024/03/21 07:18:07;;;;;;;6.53;6.03;;;11.10;99.90;;;;;;5002083;28;20226;-78
2024/03/21 07:20:33;;;;;;;11.10;10.40;;;11.20;99.90;;;;;;5005480;28;20356;-78
2024/03/21 07:23:00;;;;;;;4.77;4.37;;;11.30;99.90;;;;;;5001417;28;20248;-78
2024/03/21 07:25:26;;;;;;;4.40;4.00;;;11.30;99.90;;;;;;5007626;28;20197;-78
2024/03/21 07:27:53;;;;;;;4.20;3.80;;;11.30;99.90;;;;;;5003968;28;20204;-78
2024/03/21 07:30:19;;;;;;;4.87;4.47;;;11.40;99.90;;;;;;5007732;28;20211;-78
2024/03/21 07:32:50;;;;;;;4.97;4.30;;;11.30;99.90;;;;;;5004179;28;20226;-78
2024/03/21 07:35:16;;;;;;;5.67;5.17;;;11.40;99.90;;;;;;5006154;28;20197;-78
2024/03/21 07:37:43;;;;;;;8.50;7.90;;;11.40;99.90;;;;;;5007227;28;20426;-78
2024/03/21 07:40:10;;;;;;;10.73;9.93;;;11.40;99.90;;;;;;5013462;28;20203;-78
2024/03/21 07:42:36;;;;;;;6.70;6.13;;;11.50;99.90;;;;;;5001328;28;20240;-77
2024/03/21 07:45:03;;;;;;;6.30;5.80;;;11.40;99.90;;;;;;5009841;28;20203;-77
2024/03/21 07:47:30;;;;;;;8.33;7.53;;;11.50;99.90;;;;;;5013062;28;20675;-77
2024/03/21 07:49:57;;;;;;;6.70;6.20;;;11.50;99.90;;;;;;5002757;28;20225;-78
2024/03/21 07:52:24;;;;;;;10.53;9.73;;;11.60;99.90;;;;;;4999082;28;20224;-79
2024/03/21 07:54:50;;;;;;;7.60;6.90;;;11.60;99.90;;;;;;5002572;28;20204;-78
2024/03/21 07:57:18;;;;;;;6.87;6.20;;;11.70;99.90;;;;;;5005727;28;20221;-78
2024/03/21 07:59:44;;;;;;;7.50;6.80;;;11.80;99.90;;;;;;5004932;28;20211;-79
2024/03/21 08:02:11;;;;;;;7.40;6.57;;;12.00;99.90;;;;;;5001994;28;20217;-78
2024/03/21 08:04:36;;;;;;;6.60;6.07;;;12.10;99.90;;;;;;5003746;28;20197;-79
2024/03/21 08:07:05;;;;;;;6.57;6.07;;;12.30;99.90;;;;;;5008229;28;20194;-79
2024/03/21 08:09:31;;;;;;;7.07;6.17;;;12.50;99.90;;;;;;5000620;28;20224;-79
2024/03/21 08:11:57;;;;;;;11.90;11.10;;;12.70;99.90;;;;;;5003051;28;20719;-78
2024/03/21 08:14:23;;;;;;;12.17;11.37;;;12.80;99.90;;;;;;5014126;28;20205;-79
2024/03/21 08:16:50;;;;;;;12.20;11.40;;;13.00;99.90;;;;;;5003689;28;20634;-79
2024/03/21 08:19:16;;;;;;;12.60;11.70;;;13.20;99.90;;;;;;5007575;28;20322;-79
2024/03/21 08:21:42;;;;;;;12.93;12.03;;;13.50;99.90;;;;;;5011715;28;20699;-79
2024/03/21 08:24:10;;;;;;;11.97;11.17;;;13.80;99.90;;;;;;5005033;28;20189;-79
2024/03/21 08:26:37;;;;;;;12.00;11.10;;;14.10;99.90;;;;;;5005486;28;20251;-79
2024/03/21 08:29:03;;;;;;;11.90;11.10;;;14.60;99.90;;;;;;5004844;28;20208;-79
2024/03/21 08:31:30;;;;;;;11.70;10.90;;;14.80;99.90;;;;;;5002759;28;20221;-79
2024/03/21 08:33:55;;;;;;;11.63;10.83;;;14.90;99.90;;;;;;5001023;28;20216;-79
2024/03/21 08:36:23;;;;;;;12.17;11.03;;;14.90;99.90;;;;;;5000268;28;20337;-78
2024/03/21 08:38:49;;;;;;;11.80;10.97;;;14.80;99.90;;;;;;5002354;28;20781;-79
2024/03/21 08:41:17;;;;;;;11.33;10.53;;;14.80;99.90;;;;;;4999232;28;20184;-79
2024/03/21 08:43:43;;;;;;;11.77;10.97;;;14.90;99.90;;;;;;5005077;28;20211;-78
2024/03/21 08:46:10;;;;;;;11.40;10.60;;;14.90;99.90;;;;;;5003252;28;20195;-79
2024/03/21 08:48:36;;;;;;;11.70;10.80;;;15.10;99.90;;;;;;5002409;28;20190;-79
2024/03/21 08:51:03;;;;;;;11.77;10.87;;;15.40;99.90;;;;;;5002643;28;20663;-79
2024/03/21 08:53:29;;;;;;;11.10;10.40;;;15.80;99.90;;;;;;4999788;28;20209;-79
2024/03/21 08:55:56;;;;;;;10.87;10.17;;;15.90;99.90;;;;;;5002691;28;20197;-79
2024/03/21 08:58:23;;;;;;;10.93;10.13;;;16.00;99.90;;;;;;4999840;28;20276;-79
2024/03/21 09:00:50;;;;;;;11.20;10.20;;;16.00;99.90;;;;;;4997822;28;20225;-79
2024/03/21 09:03:16;;;;;;;11.17;10.37;;;15.90;99.90;;;;;;4998976;28;20776;-79
2024/03/21 09:05:43;;;;;;;11.53;10.73;;;15.90;99.90;;;;;;4998250;28;20192;-79
2024/03/21 09:08:09;;;;;;;10.63;9.93;;;15.80;99.90;;;;;;5010949;28;20200;-79
2024/03/21 09:10:35;;;;;;;11.80;10.80;;;15.80;99.90;;;;;;5006796;28;20202;-79
2024/03/21 09:13:01;;;;;;;10.70;10.00;;;15.80;99.90;;;;;;5002821;28;20260;-79
2024/03/21 09:15:58;;;;;;;21.63;12.30;;;15.80;99.90;;;;;;5007883;28;20206;-83
2024/03/21 09:18:27;;;;;;;12.10;10.97;;;15.80;99.90;;;;;;5013490;28;20224;-80
2024/03/21 09:20:55;;;;;;;11.13;10.33;;;15.90;99.90;;;;;;5015396;28;20200;-80
2024/03/21 09:23:21;;;;;;;10.90;10.10;;;15.90;99.90;;;;;;5010943;28;20315;-80
2024/03/21 09:25:48;;;;;;;10.93;10.20;;;16.10;99.90;;;;;;4999582;28;20295;-81
2024/03/21 09:28:14;;;;;;;10.70;9.90;;;16.00;99.90;;;;;;5001860;28;20200;-78
2024/03/21 09:30:44;;;;;;;11.10;10.30;;;16.00;99.90;;;;;;5006915;28;20201;-80
2024/03/21 09:33:10;;;;;;;10.80;10.07;;;16.00;99.90;;;;;;4999239;28;20228;-79
2024/03/21 09:35:39;;;;;;;12.17;10.90;;;15.90;99.90;;;;;;4998055;28;20209;-77
2024/03/21 09:38:05;;;;;;;11.07;10.17;;;16.00;99.90;;;;;;4998889;28;20609;-79
2024/03/21 09:40:32;;;;;;;11.47;10.67;;;16.50;99.90;;;;;;5000794;28;20197;-81
2024/03/21 09:42:58;;;;;;;12.00;11.10;;;17.20;99.90;;;;;;5004326;28;20224;-77
2024/03/21 09:45:27;;;;;;;11.10;10.20;;;17.70;99.90;;;;;;5006946;28;20232;-79
2024/03/21 09:47:54;;;;;;;10.87;9.87;;;18.20;99.90;;;;;;4996338;28;20201;-82
2024/03/21 09:50:23;;;;;;;10.60;9.90;;;18.70;99.90;;;;;;5011090;28;20200;-82
2024/03/21 09:52:51;;;;;;;10.80;10.00;;;19.10;99.90;;;;;;5007006;28;20730;-80
2024/03/21 09:55:21;;;;;;;10.97;10.07;;;19.40;99.90;;;;;;5000448;28;20305;-80
2024/03/21 09:57:47;;;;;;;10.57;9.87;;;19.60;99.90;;;;;;4995446;28;20590;-82
2024/03/21 10:00:15;;;;;;;11.37;10.47;;;19.20;99.90;;;;;;5007721;28;20185;-81
2024/03/21 10:02:43;;;;;;;10.43;9.73;;;18.90;99.90;;;;;;5010171;28;20231;-80
2024/03/21 10:05:21;;;;;;;10.23;9.53;;;18.50;99.90;;;;;;5003564;28;20200;-80
2024/03/21 10:07:48;;;;;;;10.43;9.73;;;18.20;99.90;;;;;;5009368;28;20679;-78
2024/03/21 10:10:16;;;;;;;10.37;9.40;;;18.30;99.90;;;;;;5008507;28;20197;-78
2024/03/21 10:12:46;;;;;;;10.03;9.37;;;18.70;99.90;;;;;;5006524;28;20224;-79
2024/03/21 10:15:13;;;;;;;9.60;8.90;;;19.00;99.90;;;;;;5001599;28;20197;-79
2024/03/21 10:17:41;;;;;;;9.57;8.97;;;19.20;99.90;;;;;;5003633;28;20297;-79
2024/03/21 10:20:10;;;;;;;9.53;8.93;;;19.20;99.90;;;;;;4997802;28;20196;-78
2024/03/21 10:22:36;;;;;;;9.93;9.23;;;19.20;99.90;;;;;;5002257;28;20213;-80
2024/03/21 10:25:04;;;;;;;9.40;8.60;;;19.20;99.90;;;;;;5013944;28;20279;-80
2024/03/21 10:27:32;;;;;;;9.97;9.20;;;19.20;99.90;;;;;;5005067;28;20233;-78
2024/03/21 10:29:59;;;;;;;9.10;8.50;;;19.10;99.90;;;;;;5029094;28;20267;-78
2024/03/21 10:32:25;;;;;;;9.43;8.63;;;19.00;99.90;;;;;;5009230;28;20235;-78
2024/03/21 10:34:53;;;;;;;9.67;8.97;;;19.10;99.90;;;;;;5001278;28;20209;-78
2024/03/21 10:37:20;;;;;;;9.77;9.07;;;19.20;99.90;;;;;;5000145;28;20231;-78
2024/03/21 10:39:48;;;;;;;9.60;8.90;;;19.20;99.90;;;;;;5000952;28;20293;-78
2024/03/21 10:42:25;;;;;;;9.87;9.17;;;19.40;99.90;;;;;;5002468;28;20243;-78
2024/03/21 10:44:55;;;;;;;10.67;9.80;;;19.60;99.90;;;;;;5011321;28;20202;-78
2024/03/21 10:47:21;;;;;;;10.27;9.57;;;19.90;99.90;;;;;;5001101;28;20200;-79
2024/03/21 10:49:50;;;;;;;10.30;9.50;;;20.10;99.90;;;;;;5012072;28;20189;-78
2024/03/21 10:52:16;;;;;;;10.20;9.30;;;20.20;99.90;;;;;;5006046;28;20228;-78
2024/03/21 10:54:43;;;;;;;9.57;8.77;;;20.10;99.90;;;;;;5011361;28;20219;-81
2024/03/21 10:57:16;;;;;;;9.83;9.13;;;19.80;99.90;;;;;;4999772;28;20204;-81
2024/03/21 10:59:43;;;;;;;10.03;9.23;;;20.00;99.90;;;;;;5001793;28;20311;-82
2024/03/21 11:02:14;;;;;;;9.20;8.50;;;20.10;99.90;;;;;;4999666;28;20252;-82
2024/03/21 11:04:44;;;;;;;10.40;9.60;;;20.30;99.90;;;;;;4997462;28;20204;-80
2024/03/21 11:07:13;;;;;;;10.63;9.73;;;20.20;99.90;;;;;;4999275;28;20200;-80
2024/03/21 11:09:44;;;;;;;10.33;9.53;;;19.70;99.90;;;;;;4997212;28;20242;-79
2024/03/21 11:12:11;;;;;;;10.63;9.83;;;19.30;99.90;;;;;;4997722;28;20605;-78
2024/03/21 11:14:38;;;;;;;10.70;10.00;;;18.80;99.90;;;;;;5004121;28;20200;-79
2024/03/21 11:17:04;;;;;;;10.70;9.90;;;18.40;99.90;;;;;;5006912;28;20735;-77
2024/03/21 11:19:32;;;;;;;9.87;9.17;;;18.00;99.90;;;;;;5001004;28;20212;-77
2024/03/21 11:21:58;;;;;;;9.67;8.97;;;18.00;99.90;;;;;;5004104;28;20217;-78
2024/03/21 11:24:26;;;;;;;10.10;9.40;;;18.00;99.90;;;;;;4999082;28;20260;-78
2024/03/21 11:26:51;;;;;;;10.40;9.70;;;18.00;99.90;;;;;;5013582;28;20246;-79
2024/03/21 11:29:18;;;;;;;10.23;9.50;;;18.00;99.90;;;;;;5002569;28;20197;-79
2024/03/21 11:31:44;;;;;;;10.40;9.70;;;17.90;99.90;;;;;;4998109;28;20216;-79
2024/03/21 11:34:15;;;;;;;10.10;9.40;;;17.80;99.90;;;;;;4998251;28;20204;-81
2024/03/21 11:36:42;;;;;;;10.00;9.20;;;17.90;99.90;;;;;;4996675;28;20200;-78
2024/03/21 11:39:14;;;;;;;9.43;8.73;;;17.90;99.90;;;;;;5007219;28;20216;-78
2024/03/21 11:41:41;;;;;;;9.43;8.63;;;18.00;99.90;;;;;;5000375;28;20216;-78
2024/03/21 11:44:13;;;;;;;9.60;9.00;;;18.20;99.90;;;;;;5000934;28;20192;-77
2024/03/21 11:46:39;;;;;;;9.70;9.00;;;18.40;99.90;;;;;;4999885;28;20221;-78
2024/03/21 11:49:09;;;;;;;9.80;9.10;;;18.60;99.90;;;;;;5003852;28;20189;-78
2024/03/21 11:51:36;;;;;;;9.43;8.80;;;18.70;99.90;;;;;;4997447;28;20224;-78
2024/03/21 11:54:06;;;;;;;9.63;8.83;;;18.70;99.90;;;;;;4999478;28;20284;-78
2024/03/21 11:56:33;;;;;;;10.00;9.20;;;18.50;99.90;;;;;;5009124;28;20193;-77
2024/03/21 11:59:00;;;;;;;9.50;8.80;;;18.30;99.90;;;;;;5001616;28;20220;-78
2024/03/21 12:01:26;;;;;;;9.00;8.40;;;18.00;99.90;;;;;;5001555;28;20251;-78
2024/03/21 12:03:53;;;;;;;9.73;9.03;;;17.90;99.90;;;;;;5000207;28;20287;-79
2024/03/21 12:06:19;;;;;;;8.73;8.13;;;17.80;99.90;;;;;;4995050;28;20698;-79
2024/03/21 12:08:47;;;;;;;9.00;8.40;;;17.70;99.90;;;;;;4999215;28;20202;-78
2024/03/21 12:11:15;;;;;;;8.90;8.30;;;17.70;99.90;;;;;;5004669;28;20295;-78
2024/03/21 12:13:42;;;;;;;8.63;8.03;;;17.70;99.90;;;;;;5001112;28;20208;-78
2024/03/21 12:16:11;;;;;;;8.30;7.70;;;17.70;99.90;;;;;;5005803;28;20565;-78
2024/03/21 12:18:38;;;;;;;8.10;7.60;;;17.70;99.90;;;;;;5015729;28;20212;-78
2024/03/21 12:21:04;;;;;;;8.47;7.70;;;17.60;99.90;;;;;;5005435;28;20220;-78
2024/03/21 12:23:31;;;;;;;8.60;8.00;;;17.70;99.90;;;;;;5000156;28;20200;-78
2024/03/21 12:25:57;;;;;;;8.97;8.30;;;17.90;99.90;;;;;;5006600;28;20202;-78
2024/03/21 12:28:27;;;;;;;8.23;7.67;;;18.10;99.90;;;;;;5001969;28;20723;-79
2024/03/21 12:30:54;;;;;;;7.90;7.30;;;18.20;99.90;;;;;;5002152;28;20227;-78
2024/03/21 12:33:20;;;;;;;7.70;7.10;;;18.20;99.90;;;;;;5003218;28;20620;-78
2024/03/21 12:35:46;;;;;;;8.40;7.80;;;18.20;99.90;;;;;;4999652;28;20691;-83
2024/03/21 12:38:13;;;;;;;7.97;7.27;;;18.20;99.90;;;;;;5001784;28;20223;-82